ACA49 VIDP-CYYZ
Flight info
| Callsign | ACA49 |
|---|---|
| Flight time | N/A |
| Altitude | 30000 |
| Route | OROTI6C OROTI A589 BUTOP M875 JHANG A466 SITAX M875 TAPIS P173 DAVET B475 DOLOS B449 MAMED P130 BODKA/N0495F320 P130 REBLO UM11 TBN UW71 TEMEL UM11 CRM UL746 GOKPA UM10 TIVUG UL852 NEGEM T746 ARGES DCT ZULOC DCT BUKAN DCT LITKU/N0483F340 DCT VALPI DCT LALUK DCT ZUCKA DCT ISMEF DCT LONAM N610 NATEB Y96 AGPED N110 INVON DCT BRUCE DCT GOMUP/M084F340 DCT 59N020W 60N030W 59N040W 57N050W DCT HOIST/N0481F340 N750B YBC/N0481F380 Q910 IMORI Q921 AGLUK Q941 TAMKO Q852 KANUR Q806 TUKIR IMEBA9 |
| Aircraft | B77W/H-SDE1E2E3FGHIJ2J3J4J5M1RWXY/LB1D1 |
Departure
| Time | 2026-04-27 14:44 |
|---|---|
| Airport | Indira Gandhi International Airport (VIDP) |
Arrival
| Time | N/A |
|---|---|
| Airport | Toronto Pearson International Airport (CYYZ) |
| Time | Latitude | Longitude | Altitude | Speed | Heading |
|---|---|---|---|---|---|
| 2026-04-27 13:57 | 28.55438 | 77.08064 | 740 ft | 0 kts | 326° |
| 2026-04-27 14:31 | 28.55435 | 77.08066 | 740 ft | 2 kts | 326° |
| 2026-04-27 14:32 | 28.55423 | 77.08075 | 738 ft | 2 kts | 326° |
| 2026-04-27 14:32 | 28.55412 | 77.08084 | 739 ft | 2 kts | 325° |
| 2026-04-27 14:32 | 28.55401 | 77.08093 | 737 ft | 2 kts | 323° |
| 2026-04-27 14:32 | 28.55390 | 77.08103 | 738 ft | 2 kts | 316° |
| 2026-04-27 14:33 | 28.55382 | 77.08112 | 738 ft | 1 kts | 297° |
| 2026-04-27 14:33 | 28.55379 | 77.08121 | 738 ft | 1 kts | 270° |
| 2026-04-27 14:33 | 28.55379 | 77.08131 | 739 ft | 1 kts | 251° |
| 2026-04-27 14:33 | 28.55381 | 77.08137 | 739 ft | 1 kts | 245° |
| 2026-04-27 14:34 | 28.55384 | 77.08143 | 740 ft | 1 kts | 243° |
| 2026-04-27 14:34 | 28.55386 | 77.08149 | 740 ft | 0 kts | 242° |
| 2026-04-27 14:36 | 28.55384 | 77.08144 | 740 ft | 4 kts | 242° |
| 2026-04-27 14:37 | 28.55350 | 77.08074 | 739 ft | 17 kts | 240° |
| 2026-04-27 14:37 | 28.55269 | 77.07920 | 739 ft | 27 kts | 238° |
| 2026-04-27 14:37 | 28.55240 | 77.07765 | 738 ft | 17 kts | 231° |
| 2026-04-27 14:37 | 28.55127 | 77.07722 | 740 ft | 17 kts | 195° |
| 2026-04-27 14:38 | 28.55036 | 77.07786 | 741 ft | 20 kts | 107° |
| 2026-04-27 14:38 | 28.54994 | 77.07963 | 742 ft | 26 kts | 105° |
| 2026-04-27 14:38 | 28.54945 | 77.08171 | 746 ft | 27 kts | 105° |
| 2026-04-27 14:38 | 28.54899 | 77.08381 | 746 ft | 27 kts | 104° |
| 2026-04-27 14:39 | 28.54851 | 77.08590 | 749 ft | 27 kts | 105° |
| 2026-04-27 14:39 | 28.54801 | 77.08798 | 754 ft | 27 kts | 105° |
| 2026-04-27 14:39 | 28.54752 | 77.09006 | 753 ft | 27 kts | 104° |
| 2026-04-27 14:39 | 28.54706 | 77.09216 | 755 ft | 27 kts | 104° |
| 2026-04-27 14:40 | 28.54658 | 77.09425 | 762 ft | 27 kts | 105° |
| 2026-04-27 14:40 | 28.54609 | 77.09633 | 757 ft | 27 kts | 105° |
| 2026-04-27 14:40 | 28.54561 | 77.09839 | 767 ft | 27 kts | 105° |
| 2026-04-27 14:40 | 28.54514 | 77.10048 | 770 ft | 27 kts | 104° |
| 2026-04-27 14:41 | 28.54466 | 77.10260 | 772 ft | 27 kts | 105° |
| 2026-04-27 14:41 | 28.54417 | 77.10468 | 775 ft | 27 kts | 105° |
| 2026-04-27 14:41 | 28.54336 | 77.10568 | 776 ft | 18 kts | 189° |
| 2026-04-27 14:41 | 28.54213 | 77.10531 | 777 ft | 18 kts | 194° |
| 2026-04-27 14:42 | 28.54091 | 77.10498 | 777 ft | 17 kts | 184° |
| 2026-04-27 14:42 | 28.54028 | 77.10592 | 778 ft | 17 kts | 102° |
| 2026-04-27 14:42 | 28.54002 | 77.10719 | 780 ft | 17 kts | 103° |
| 2026-04-27 14:42 | 28.53975 | 77.10847 | 781 ft | 17 kts | 103° |
| 2026-04-27 14:43 | 28.53928 | 77.10960 | 782 ft | 17 kts | 154° |
| 2026-04-27 14:43 | 28.53817 | 77.10938 | 782 ft | 17 kts | 214° |
| 2026-04-27 14:43 | 28.53794 | 77.10862 | 781 ft | 0 kts | 280° |
| 2026-04-27 14:43 | 28.53798 | 77.10836 | 781 ft | 13 kts | 279° |
| 2026-04-27 14:44 | 28.53874 | 77.10479 | 777 ft | 81 kts | 284° |
| 2026-04-27 14:44 | 28.54064 | 77.09600 | 766 ft | 147 kts | 284° |
| 2026-04-27 14:44 | 28.54356 | 77.08264 | 851 ft | 188 kts | 284° |
| 2026-04-27 14:44 | 28.54670 | 77.06835 | 1519 ft | 184 kts | 283° |
| 2026-04-27 14:45 | 28.54978 | 77.05473 | 2168 ft | 176 kts | 282° |
| 2026-04-27 14:45 | 28.55110 | 77.04072 | 2363 ft | 185 kts | 258° |
| 2026-04-27 14:45 | 28.54760 | 77.02638 | 2460 ft | 193 kts | 257° |
| 2026-04-27 14:45 | 28.54406 | 77.01109 | 2533 ft | 208 kts | 257° |
| 2026-04-27 14:46 | 28.54029 | 76.99456 | 2668 ft | 223 kts | 257° |
| 2026-04-27 14:46 | 28.53627 | 76.97712 | 2959 ft | 233 kts | 257° |
| 2026-04-27 14:46 | 28.53204 | 76.95877 | 3186 ft | 248 kts | 256° |
| 2026-04-27 14:46 | 28.52752 | 76.93925 | 3435 ft | 261 kts | 257° |
| 2026-04-27 14:47 | 28.52284 | 76.91911 | 3896 ft | 267 kts | 257° |
| 2026-04-27 14:47 | 28.51805 | 76.89847 | 4379 ft | 272 kts | 257° |
| 2026-04-27 14:47 | 28.51344 | 76.87748 | 4908 ft | 273 kts | 263° |
| 2026-04-27 14:47 | 28.51449 | 76.85602 | 5254 ft | 275 kts | 285° |
| 2026-04-27 14:48 | 28.51946 | 76.83480 | 5678 ft | 280 kts | 284° |
| 2026-04-27 14:48 | 28.52901 | 76.79145 | 6727 ft | 285 kts | 284° |
| 2026-04-27 14:48 | 28.53382 | 76.76943 | 7243 ft | 288 kts | 284° |
| 2026-04-27 14:49 | 28.53865 | 76.74725 | 7800 ft | 290 kts | 284° |
| 2026-04-27 14:49 | 28.54349 | 76.72498 | 8323 ft | 292 kts | 284° |
| 2026-04-27 14:49 | 28.55061 | 76.70347 | 8682 ft | 293 kts | 302° |
| 2026-04-27 14:49 | 28.56234 | 76.68422 | 9046 ft | 299 kts | 306° |
| 2026-04-27 14:50 | 28.57451 | 76.66493 | 9586 ft | 300 kts | 306° |
| 2026-04-27 14:50 | 28.58673 | 76.64552 | 9990 ft | 308 kts | 305° |
| 2026-04-27 14:50 | 28.59952 | 76.62510 | 10078 ft | 326 kts | 305° |
| 2026-04-27 14:50 | 28.61296 | 76.60353 | 10228 ft | 342 kts | 305° |
| 2026-04-27 14:51 | 28.62702 | 76.58085 | 10363 ft | 359 kts | 305° |
| 2026-04-27 14:51 | 28.64156 | 76.55729 | 10678 ft | 369 kts | 305° |
| 2026-04-27 14:51 | 28.65644 | 76.53313 | 11137 ft | 374 kts | 304° |
| 2026-04-27 14:51 | 28.66635 | 76.51700 | 11518 ft | 376 kts | 304° |
| 2026-04-27 14:52 | 28.68642 | 76.48430 | 12349 ft | 377 kts | 304° |
| 2026-04-27 14:52 | 28.70141 | 76.45983 | 12949 ft | 378 kts | 304° |
| 2026-04-27 14:52 | 28.71651 | 76.43516 | 13511 ft | 380 kts | 304° |
| 2026-04-27 14:52 | 28.73171 | 76.41032 | 13988 ft | 383 kts | 304° |
| 2026-04-27 14:53 | 28.74702 | 76.38528 | 14463 ft | 387 kts | 304° |
| 2026-04-27 14:53 | 28.76244 | 76.36003 | 14947 ft | 389 kts | 304° |
| 2026-04-27 14:53 | 28.77793 | 76.33467 | 15428 ft | 392 kts | 304° |
| 2026-04-27 14:53 | 28.79357 | 76.30905 | 15901 ft | 395 kts | 304° |
| 2026-04-27 14:54 | 28.80924 | 76.28335 | 16374 ft | 398 kts | 304° |
| 2026-04-27 14:54 | 28.82520 | 76.25717 | 16845 ft | 401 kts | 304° |
| 2026-04-27 14:54 | 28.84119 | 76.23092 | 17322 ft | 404 kts | 304° |
| 2026-04-27 14:54 | 28.85726 | 76.20452 | 17773 ft | 408 kts | 304° |
| 2026-04-27 14:55 | 28.87350 | 76.17782 | 18185 ft | 411 kts | 304° |
| 2026-04-27 14:55 | 28.88431 | 76.16005 | 18447 ft | 413 kts | 304° |
| 2026-04-27 14:55 | 28.90073 | 76.13303 | 18864 ft | 416 kts | 304° |
| 2026-04-27 14:55 | 28.92287 | 76.09658 | 19406 ft | 419 kts | 304° |
| 2026-04-27 14:56 | 28.93386 | 76.07847 | 19667 ft | 421 kts | 304° |
| 2026-04-27 14:56 | 28.95058 | 76.05090 | 20077 ft | 423 kts | 303° |
| 2026-04-27 14:56 | 28.96740 | 76.02315 | 20495 ft | 426 kts | 303° |
| 2026-04-27 14:56 | 28.98408 | 75.99561 | 20909 ft | 428 kts | 303° |
| 2026-04-27 14:57 | 29.00151 | 75.96683 | 21321 ft | 431 kts | 303° |
| 2026-04-27 14:57 | 29.01854 | 75.93867 | 21712 ft | 433 kts | 303° |
| 2026-04-27 14:57 | 29.03570 | 75.91028 | 22127 ft | 435 kts | 303° |
| 2026-04-27 14:57 | 29.05293 | 75.88177 | 22542 ft | 437 kts | 303° |
| 2026-04-27 14:58 | 29.07022 | 75.85312 | 22930 ft | 439 kts | 303° |
| 2026-04-27 14:58 | 29.08737 | 75.82470 | 23281 ft | 441 kts | 303° |
| 2026-04-27 14:58 | 29.10505 | 75.79537 | 23590 ft | 443 kts | 303° |
| 2026-04-27 14:58 | 29.12229 | 75.76675 | 23903 ft | 445 kts | 303° |
| 2026-04-27 14:59 | 29.13987 | 75.73755 | 24221 ft | 446 kts | 303° |
| 2026-04-27 14:59 | 29.15737 | 75.70847 | 24532 ft | 448 kts | 303° |
| 2026-04-27 14:59 | 29.17539 | 75.67849 | 24856 ft | 449 kts | 303° |
| 2026-04-27 14:59 | 29.19314 | 75.64894 | 25154 ft | 451 kts | 303° |
| 2026-04-27 15:00 | 29.21095 | 75.61926 | 25477 ft | 453 kts | 303° |
| 2026-04-27 15:00 | 29.22881 | 75.58949 | 25788 ft | 454 kts | 303° |
| 2026-04-27 15:00 | 29.24672 | 75.55962 | 26098 ft | 455 kts | 303° |
| 2026-04-27 15:00 | 29.26468 | 75.52964 | 26396 ft | 457 kts | 303° |
| 2026-04-27 15:01 | 29.28261 | 75.49964 | 26708 ft | 458 kts | 302° |
| 2026-04-27 15:01 | 29.29892 | 75.46825 | 26991 ft | 458 kts | 296° |
| 2026-04-27 15:01 | 29.31331 | 75.43561 | 27269 ft | 460 kts | 295° |
| 2026-04-27 15:01 | 29.32811 | 75.40260 | 27538 ft | 462 kts | 298° |
| 2026-04-27 15:02 | 29.34552 | 75.37152 | 27783 ft | 465 kts | 304° |
| 2026-04-27 15:02 | 29.36485 | 75.34168 | 28046 ft | 467 kts | 305° |
| 2026-04-27 15:02 | 29.38449 | 75.31190 | 28269 ft | 469 kts | 305° |
| 2026-04-27 15:02 | 29.40418 | 75.28206 | 28519 ft | 470 kts | 305° |
| 2026-04-27 15:03 | 29.42387 | 75.25207 | 28775 ft | 471 kts | 305° |
| 2026-04-27 15:03 | 29.44347 | 75.22201 | 29009 ft | 472 kts | 304° |
| 2026-04-27 15:03 | 29.46313 | 75.19169 | 29240 ft | 473 kts | 304° |
| 2026-04-27 15:03 | 29.48274 | 75.16133 | 29444 ft | 474 kts | 304° |
| 2026-04-27 15:04 | 29.50239 | 75.13083 | 29553 ft | 477 kts | 304° |
| 2026-04-27 15:04 | 29.52209 | 75.10021 | 29614 ft | 475 kts | 304° |
| 2026-04-27 15:04 | 29.56117 | 75.03943 | 29617 ft | 472 kts | 304° |
| 2026-04-27 15:05 | 29.60012 | 74.97877 | 29633 ft | 472 kts | 304° |
| 2026-04-27 15:05 | 29.63909 | 74.91799 | 29636 ft | 472 kts | 304° |
| 2026-04-27 15:06 | 29.67806 | 74.85713 | 29634 ft | 473 kts | 304° |
| 2026-04-27 15:06 | 29.71700 | 74.79623 | 29635 ft | 473 kts | 304° |
| 2026-04-27 15:07 | 29.75597 | 74.73519 | 29636 ft | 473 kts | 304° |
| 2026-04-27 15:07 | 29.79485 | 74.67420 | 29632 ft | 472 kts | 304° |
| 2026-04-27 15:08 | 29.83369 | 74.61318 | 29629 ft | 472 kts | 304° |
| 2026-04-27 15:08 | 29.87239 | 74.55229 | 29633 ft | 471 kts | 304° |
| 2026-04-27 15:09 | 29.91109 | 74.49130 | 29636 ft | 471 kts | 303° |
| 2026-04-27 15:09 | 29.94948 | 74.43071 | 29636 ft | 471 kts | 303° |
| 2026-04-27 15:10 | 29.98832 | 74.36932 | 29627 ft | 470 kts | 303° |
| 2026-04-27 15:10 | 30.02685 | 74.30834 | 29640 ft | 470 kts | 303° |
| 2026-04-27 15:11 | 30.06511 | 74.24768 | 29622 ft | 470 kts | 303° |
| 2026-04-27 15:11 | 30.10349 | 74.18673 | 29642 ft | 470 kts | 303° |
| 2026-04-27 15:12 | 30.14190 | 74.12566 | 29632 ft | 469 kts | 303° |
| 2026-04-27 15:12 | 30.18015 | 74.06474 | 29629 ft | 468 kts | 303° |
| 2026-04-27 15:13 | 30.21836 | 74.00378 | 29635 ft | 468 kts | 303° |
| 2026-04-27 15:13 | 30.25644 | 73.94298 | 29640 ft | 467 kts | 303° |
| 2026-04-27 15:14 | 30.29451 | 73.88221 | 29635 ft | 466 kts | 303° |
| 2026-04-27 15:14 | 30.33244 | 73.82157 | 29635 ft | 465 kts | 303° |
| 2026-04-27 15:15 | 30.37035 | 73.76084 | 29639 ft | 465 kts | 303° |
| 2026-04-27 15:15 | 30.40827 | 73.70000 | 29641 ft | 466 kts | 303° |
| 2026-04-27 15:16 | 30.44626 | 73.63895 | 29640 ft | 467 kts | 303° |
| 2026-04-27 15:16 | 30.48427 | 73.57778 | 29640 ft | 469 kts | 303° |
| 2026-04-27 15:17 | 30.52240 | 73.51631 | 29638 ft | 470 kts | 303° |
| 2026-04-27 15:17 | 30.56058 | 73.45468 | 29640 ft | 471 kts | 303° |
| 2026-04-27 15:18 | 30.59876 | 73.39296 | 29636 ft | 471 kts | 303° |
| 2026-04-27 15:18 | 30.63698 | 73.33106 | 29637 ft | 472 kts | 303° |
| 2026-04-27 15:19 | 30.67516 | 73.26915 | 29635 ft | 472 kts | 303° |
| 2026-04-27 15:19 | 30.71366 | 73.20670 | 29635 ft | 472 kts | 303° |
| 2026-04-27 15:20 | 30.75198 | 73.14455 | 29634 ft | 473 kts | 303° |
| 2026-04-27 15:20 | 30.79032 | 73.08225 | 29639 ft | 474 kts | 303° |
| 2026-04-27 15:21 | 30.82839 | 73.02027 | 29633 ft | 475 kts | 303° |
| 2026-04-27 15:21 | 30.86677 | 72.95768 | 29636 ft | 476 kts | 303° |
| 2026-04-27 15:22 | 30.90526 | 72.89482 | 29640 ft | 477 kts | 303° |
| 2026-04-27 15:22 | 30.94377 | 72.83183 | 29638 ft | 478 kts | 303° |
| 2026-04-27 15:23 | 30.98237 | 72.76859 | 29637 ft | 479 kts | 303° |
| 2026-04-27 15:23 | 31.02093 | 72.70531 | 29639 ft | 479 kts | 303° |
| 2026-04-27 15:24 | 31.05952 | 72.64187 | 29638 ft | 480 kts | 303° |
| 2026-04-27 15:24 | 31.09806 | 72.57842 | 29635 ft | 479 kts | 303° |
| 2026-04-27 15:25 | 31.13652 | 72.51500 | 29636 ft | 478 kts | 303° |
| 2026-04-27 15:25 | 31.17489 | 72.45161 | 29634 ft | 478 kts | 303° |
| 2026-04-27 15:26 | 31.21319 | 72.38824 | 29626 ft | 477 kts | 303° |
| 2026-04-27 15:26 | 31.25139 | 72.32494 | 29625 ft | 476 kts | 303° |
| 2026-04-27 15:27 | 31.28624 | 72.25949 | 29632 ft | 474 kts | 296° |
| 2026-04-27 15:27 | 31.31739 | 72.19157 | 29622 ft | 474 kts | 296° |
| 2026-04-27 15:28 | 31.34857 | 72.12357 | 29627 ft | 475 kts | 296° |
| 2026-04-27 15:28 | 31.38002 | 72.05546 | 29621 ft | 476 kts | 296° |
| 2026-04-27 15:29 | 31.41150 | 71.98739 | 29622 ft | 476 kts | 296° |
| 2026-04-27 15:29 | 31.44303 | 71.91908 | 29622 ft | 477 kts | 296° |
| 2026-04-27 15:30 | 31.47453 | 71.85068 | 29625 ft | 477 kts | 296° |
| 2026-04-27 15:30 | 31.50603 | 71.78215 | 29625 ft | 478 kts | 296° |
| 2026-04-27 15:31 | 31.53747 | 71.71363 | 29620 ft | 478 kts | 296° |
| 2026-04-27 15:31 | 31.56892 | 71.64496 | 29621 ft | 478 kts | 296° |
| 2026-04-27 15:32 | 31.60031 | 71.57631 | 29624 ft | 478 kts | 296° |
| 2026-04-27 15:32 | 31.63174 | 71.50752 | 29622 ft | 478 kts | 296° |
| 2026-04-27 15:33 | 31.66315 | 71.43865 | 29620 ft | 478 kts | 296° |
| 2026-04-27 15:33 | 31.69444 | 71.36990 | 29622 ft | 478 kts | 296° |
| 2026-04-27 15:34 | 31.72048 | 71.31260 | 29619 ft | 478 kts | 296° |
| 2026-04-27 15:34 | 31.75169 | 71.24377 | 29622 ft | 477 kts | 296° |
| 2026-04-27 15:35 | 31.78287 | 71.17491 | 29623 ft | 477 kts | 296° |
| 2026-04-27 15:35 | 31.81392 | 71.10617 | 29626 ft | 476 kts | 296° |
| 2026-04-27 15:36 | 31.84515 | 71.03692 | 29621 ft | 476 kts | 296° |
| 2026-04-27 15:36 | 31.87614 | 70.96808 | 29624 ft | 476 kts | 296° |
| 2026-04-27 15:37 | 31.91176 | 70.90243 | 29626 ft | 479 kts | 309° |
| 2026-04-27 15:37 | 31.96156 | 70.84996 | 29623 ft | 486 kts | 324° |
| 2026-04-27 15:38 | 32.01934 | 70.80930 | 29632 ft | 488 kts | 327° |
| 2026-04-27 15:38 | 32.07848 | 70.76865 | 29640 ft | 489 kts | 326° |
| 2026-04-27 15:39 | 32.13657 | 70.72796 | 29639 ft | 489 kts | 326° |
| 2026-04-27 15:39 | 32.19500 | 70.68652 | 29647 ft | 490 kts | 326° |
| 2026-04-27 15:40 | 32.25333 | 70.64501 | 29637 ft | 490 kts | 326° |
| 2026-04-27 15:40 | 32.31168 | 70.60346 | 29649 ft | 489 kts | 326° |
| 2026-04-27 15:41 | 32.36999 | 70.56190 | 29658 ft | 489 kts | 326° |
| 2026-04-27 15:41 | 32.42827 | 70.52029 | 29668 ft | 489 kts | 326° |
| 2026-04-27 15:42 | 32.48645 | 70.47869 | 29672 ft | 489 kts | 326° |
| 2026-04-27 15:42 | 32.54473 | 70.43695 | 29682 ft | 489 kts | 326° |
| 2026-04-27 15:43 | 32.60298 | 70.39517 | 29700 ft | 490 kts | 326° |
| 2026-04-27 15:43 | 32.66135 | 70.35327 | 29710 ft | 492 kts | 326° |
| 2026-04-27 15:44 | 32.72006 | 70.31127 | 29723 ft | 493 kts | 326° |
| 2026-04-27 15:44 | 32.77889 | 70.26913 | 29727 ft | 494 kts | 326° |
| 2026-04-27 15:45 | 32.83787 | 70.22679 | 29741 ft | 495 kts | 326° |
| 2026-04-27 15:45 | 32.89680 | 70.18440 | 29757 ft | 496 kts | 325° |
| 2026-04-27 15:46 | 32.95584 | 70.14186 | 29765 ft | 496 kts | 325° |
| 2026-04-27 15:46 | 33.01483 | 70.09930 | 29773 ft | 495 kts | 325° |
| 2026-04-27 15:47 | 33.07377 | 70.05670 | 29780 ft | 495 kts | 325° |
| 2026-04-27 15:47 | 33.13409 | 70.01692 | 29779 ft | 496 kts | 329° |
| 2026-04-27 15:48 | 33.19494 | 69.97918 | 29798 ft | 496 kts | 329° |
| 2026-04-27 15:49 | 33.28652 | 69.92187 | 29801 ft | 495 kts | 328° |
| 2026-04-27 15:49 | 33.34746 | 69.88331 | 29818 ft | 495 kts | 328° |
| 2026-04-27 15:50 | 33.40840 | 69.84468 | 29838 ft | 496 kts | 328° |
| 2026-04-27 15:50 | 33.46940 | 69.80597 | 29839 ft | 496 kts | 328° |
| 2026-04-27 15:51 | 33.53041 | 69.76722 | 29879 ft | 497 kts | 328° |
| 2026-04-27 15:51 | 33.59185 | 69.72893 | 29882 ft | 497 kts | 329° |
| 2026-04-27 15:52 | 33.65335 | 69.69099 | 29894 ft | 497 kts | 329° |
| 2026-04-27 15:52 | 33.71475 | 69.65295 | 29941 ft | 496 kts | 329° |
| 2026-04-27 15:53 | 33.77597 | 69.61485 | 29937 ft | 496 kts | 329° |
| 2026-04-27 15:53 | 33.83715 | 69.57671 | 29961 ft | 495 kts | 329° |
| 2026-04-27 15:54 | 33.89833 | 69.53847 | 29960 ft | 496 kts | 329° |
| 2026-04-27 15:54 | 33.95952 | 69.50018 | 29973 ft | 496 kts | 329° |
| 2026-04-27 15:55 | 34.02086 | 69.46176 | 29977 ft | 497 kts | 329° |
| 2026-04-27 15:55 | 34.08217 | 69.42328 | 29960 ft | 497 kts | 329° |
| 2026-04-27 15:56 | 34.14363 | 69.38469 | 29961 ft | 498 kts | 329° |
| 2026-04-27 15:56 | 34.20529 | 69.34611 | 29952 ft | 500 kts | 329° |
| 2026-04-27 15:57 | 34.26705 | 69.30742 | 29948 ft | 501 kts | 329° |
| 2026-04-27 15:57 | 34.32901 | 69.26851 | 29944 ft | 502 kts | 329° |
| 2026-04-27 15:58 | 34.39100 | 69.22950 | 29941 ft | 503 kts | 329° |
| 2026-04-27 15:58 | 34.45315 | 69.19032 | 29932 ft | 504 kts | 329° |
| 2026-04-27 15:59 | 34.51142 | 69.14471 | 29952 ft | 495 kts | 315° |
| 2026-04-27 15:59 | 34.55807 | 69.08426 | 29948 ft | 488 kts | 302° |
| 2026-04-27 16:00 | 34.59741 | 69.01740 | 29964 ft | 487 kts | 302° |
| 2026-04-27 16:00 | 34.63667 | 68.95035 | 29968 ft | 487 kts | 302° |
| 2026-04-27 16:01 | 34.67630 | 68.88352 | 29983 ft | 488 kts | 302° |
| 2026-04-27 16:01 | 34.71605 | 68.81674 | 30003 ft | 488 kts | 302° |
| 2026-04-27 16:02 | 34.75592 | 68.74968 | 30014 ft | 490 kts | 302° |
| 2026-04-27 16:02 | 34.79578 | 68.68250 | 30017 ft | 490 kts | 302° |
| 2026-04-27 16:03 | 34.83565 | 68.61514 | 30016 ft | 490 kts | 302° |
| 2026-04-27 16:03 | 34.87546 | 68.54780 | 30016 ft | 490 kts | 302° |
| 2026-04-27 16:04 | 34.91524 | 68.48027 | 30040 ft | 491 kts | 302° |
| 2026-04-27 16:04 | 34.95498 | 68.41273 | 30038 ft | 491 kts | 302° |
| 2026-04-27 16:05 | 34.99450 | 68.34546 | 30039 ft | 491 kts | 302° |
| 2026-04-27 16:05 | 35.03451 | 68.27721 | 30056 ft | 490 kts | 302° |
| 2026-04-27 16:06 | 35.07388 | 68.20937 | 30036 ft | 490 kts | 302° |
| 2026-04-27 16:06 | 35.11234 | 68.14132 | 30040 ft | 490 kts | 301° |
| 2026-04-27 16:07 | 35.15095 | 68.07280 | 30035 ft | 489 kts | 301° |
| 2026-04-27 16:07 | 35.18956 | 68.00441 | 30032 ft | 489 kts | 301° |
| 2026-04-27 16:08 | 35.22822 | 67.93586 | 30034 ft | 489 kts | 301° |
| 2026-04-27 16:08 | 35.26677 | 67.86738 | 30042 ft | 489 kts | 301° |
| 2026-04-27 16:09 | 35.30539 | 67.79883 | 30050 ft | 489 kts | 302° |
| 2026-04-27 16:09 | 35.36388 | 67.69655 | 30044 ft | 489 kts | 302° |
| 2026-04-27 16:10 | 35.44162 | 67.56016 | 30054 ft | 488 kts | 302° |
| 2026-04-27 16:11 | 35.49968 | 67.45773 | 30054 ft | 487 kts | 301° |
| 2026-04-27 16:12 | 35.55759 | 67.35531 | 30041 ft | 487 kts | 301° |
| 2026-04-27 16:13 | 35.61541 | 67.25276 | 30030 ft | 487 kts | 301° |
| 2026-04-27 16:13 | 35.67316 | 67.15002 | 30018 ft | 486 kts | 301° |
| 2026-04-27 16:14 | 35.74962 | 67.01348 | 29990 ft | 486 kts | 301° |
| 2026-04-27 16:15 | 35.82628 | 66.87624 | 29994 ft | 486 kts | 301° |
| 2026-04-27 16:16 | 35.90304 | 66.73905 | 29976 ft | 486 kts | 301° |
| 2026-04-27 16:17 | 35.97946 | 66.60179 | 29964 ft | 485 kts | 300° |
| 2026-04-27 16:18 | 36.04940 | 66.47565 | 29953 ft | 484 kts | 300° |
| 2026-04-27 16:19 | 36.08741 | 66.40691 | 29940 ft | 484 kts | 300° |
| 2026-04-27 16:20 | 36.16285 | 66.27007 | 29936 ft | 483 kts | 300° |
| 2026-04-27 16:21 | 36.21955 | 66.16687 | 29923 ft | 483 kts | 300° |
| 2026-04-27 16:22 | 36.29499 | 66.02904 | 29905 ft | 483 kts | 300° |
| 2026-04-27 16:22 | 36.35138 | 65.92563 | 29902 ft | 483 kts | 300° |
| 2026-04-27 16:23 | 36.40769 | 65.82205 | 29887 ft | 483 kts | 300° |
| 2026-04-27 16:24 | 36.44520 | 65.75287 | 29893 ft | 483 kts | 300° |
| 2026-04-27 16:25 | 36.52006 | 65.61439 | 29884 ft | 483 kts | 300° |
| 2026-04-27 16:26 | 36.59484 | 65.47551 | 29877 ft | 483 kts | 300° |
| 2026-04-27 16:27 | 36.66948 | 65.33630 | 29874 ft | 483 kts | 299° |
| 2026-04-27 16:28 | 36.76232 | 65.16236 | 29879 ft | 482 kts | 299° |
| 2026-04-27 16:29 | 36.85443 | 64.98888 | 29874 ft | 480 kts | 299° |
| 2026-04-27 16:30 | 36.92940 | 64.84697 | 29888 ft | 497 kts | 298° |
| 2026-04-27 16:31 | 36.97509 | 64.73267 | 29873 ft | 483 kts | 282° |
| 2026-04-27 16:31 | 36.99421 | 64.65242 | 29882 ft | 481 kts | 281° |
| 2026-04-27 16:32 | 37.02250 | 64.53224 | 29883 ft | 480 kts | 282° |
| 2026-04-27 16:33 | 37.05115 | 64.41222 | 29878 ft | 479 kts | 282° |
| 2026-04-27 16:33 | 37.07022 | 64.33233 | 29880 ft | 479 kts | 282° |
| 2026-04-27 16:34 | 37.08925 | 64.25231 | 29878 ft | 480 kts | 282° |
| 2026-04-27 16:34 | 37.10824 | 64.17213 | 29878 ft | 480 kts | 282° |
| 2026-04-27 16:35 | 37.12719 | 64.09186 | 29879 ft | 481 kts | 283° |
| 2026-04-27 16:36 | 37.15556 | 63.97119 | 29880 ft | 482 kts | 283° |
| 2026-04-27 16:36 | 37.17443 | 63.89060 | 29868 ft | 482 kts | 283° |
| 2026-04-27 16:37 | 37.19330 | 63.80976 | 29876 ft | 483 kts | 283° |
| 2026-04-27 16:37 | 37.21199 | 63.72940 | 29872 ft | 483 kts | 283° |
| 2026-04-27 16:38 | 37.23073 | 63.64852 | 29876 ft | 483 kts | 283° |
| 2026-04-27 16:38 | 37.24947 | 63.56739 | 29888 ft | 483 kts | 283° |
| 2026-04-27 16:39 | 37.26811 | 63.48637 | 29876 ft | 484 kts | 283° |
| 2026-04-27 16:39 | 37.28673 | 63.40520 | 29883 ft | 483 kts | 284° |
| 2026-04-27 16:40 | 37.30526 | 63.32413 | 29878 ft | 483 kts | 284° |
| 2026-04-27 16:40 | 37.32375 | 63.24298 | 29878 ft | 483 kts | 284° |
| 2026-04-27 16:41 | 37.34216 | 63.16186 | 29873 ft | 482 kts | 284° |
| 2026-04-27 16:41 | 37.36047 | 63.08088 | 29876 ft | 482 kts | 284° |
| 2026-04-27 16:42 | 37.37872 | 62.99993 | 29877 ft | 481 kts | 284° |
| 2026-04-27 16:42 | 37.39692 | 62.91889 | 29873 ft | 481 kts | 284° |
| 2026-04-27 16:43 | 37.41504 | 62.83793 | 29875 ft | 481 kts | 284° |
| 2026-04-27 16:43 | 37.43311 | 62.75688 | 29878 ft | 481 kts | 284° |
| 2026-04-27 16:44 | 37.45112 | 62.67585 | 29873 ft | 480 kts | 284° |
| 2026-04-27 16:44 | 37.46904 | 62.59492 | 29868 ft | 480 kts | 284° |
| 2026-04-27 16:45 | 37.48692 | 62.51389 | 29869 ft | 480 kts | 284° |
| 2026-04-27 16:45 | 37.50471 | 62.43297 | 29874 ft | 480 kts | 284° |
| 2026-04-27 16:46 | 37.52246 | 62.35192 | 29867 ft | 480 kts | 284° |
| 2026-04-27 16:46 | 37.54016 | 62.27085 | 29865 ft | 480 kts | 284° |
| 2026-04-27 16:47 | 37.55529 | 62.20129 | 29862 ft | 480 kts | 284° |
| 2026-04-27 16:47 | 37.57284 | 62.12036 | 29863 ft | 480 kts | 284° |
| 2026-04-27 16:48 | 37.59032 | 62.03942 | 29857 ft | 480 kts | 284° |
| 2026-04-27 16:48 | 37.60778 | 61.95833 | 29859 ft | 480 kts | 284° |
| 2026-04-27 16:49 | 37.63454 | 61.83616 | 29859 ft | 480 kts | 285° |
| 2026-04-27 16:49 | 37.65348 | 61.75556 | 29856 ft | 480 kts | 286° |
| 2026-04-27 16:50 | 37.67245 | 61.67495 | 29859 ft | 480 kts | 285° |
| 2026-04-27 16:50 | 37.69135 | 61.59363 | 29859 ft | 480 kts | 285° |
| 2026-04-27 16:51 | 37.70990 | 61.51310 | 29857 ft | 480 kts | 285° |
| 2026-04-27 16:51 | 37.72843 | 61.43237 | 29862 ft | 479 kts | 285° |
| 2026-04-27 16:52 | 37.74703 | 61.35107 | 29861 ft | 479 kts | 285° |
| 2026-04-27 16:52 | 37.76540 | 61.27049 | 29864 ft | 478 kts | 285° |
| 2026-04-27 16:53 | 37.78371 | 61.18993 | 29859 ft | 478 kts | 285° |
| 2026-04-27 16:53 | 37.80195 | 61.10939 | 29864 ft | 477 kts | 285° |
| 2026-04-27 16:54 | 37.82025 | 61.02826 | 29861 ft | 477 kts | 285° |
| 2026-04-27 16:54 | 37.83833 | 60.94786 | 29863 ft | 477 kts | 285° |
| 2026-04-27 16:55 | 37.85636 | 60.86740 | 29863 ft | 477 kts | 285° |
| 2026-04-27 16:55 | 37.87449 | 60.78619 | 29860 ft | 477 kts | 285° |
| 2026-04-27 16:56 | 37.89238 | 60.70577 | 29862 ft | 477 kts | 285° |
| 2026-04-27 16:56 | 37.91023 | 60.62527 | 29865 ft | 477 kts | 285° |
| 2026-04-27 16:57 | 37.92821 | 60.54387 | 29860 ft | 477 kts | 285° |
| 2026-04-27 16:57 | 37.94597 | 60.46315 | 29862 ft | 477 kts | 285° |
| 2026-04-27 16:58 | 37.96371 | 60.38227 | 29862 ft | 478 kts | 284° |
| 2026-04-27 16:58 | 37.98152 | 60.30077 | 29863 ft | 478 kts | 284° |
| 2026-04-27 16:59 | 37.99919 | 60.21965 | 29859 ft | 478 kts | 284° |
| 2026-04-27 16:59 | 38.01674 | 60.13866 | 29863 ft | 478 kts | 284° |
| 2026-04-27 17:00 | 38.04288 | 60.01694 | 29864 ft | 478 kts | 284° |
| 2026-04-27 17:01 | 38.06035 | 59.93518 | 29867 ft | 477 kts | 284° |
| 2026-04-27 17:01 | 38.07760 | 59.85421 | 29869 ft | 477 kts | 284° |
| 2026-04-27 17:02 | 38.09481 | 59.77313 | 29864 ft | 477 kts | 284° |
| 2026-04-27 17:02 | 38.11210 | 59.69138 | 29866 ft | 477 kts | 284° |
| 2026-04-27 17:03 | 38.12916 | 59.61039 | 29861 ft | 476 kts | 284° |
| 2026-04-27 17:03 | 38.14628 | 59.52883 | 29864 ft | 476 kts | 284° |
| 2026-04-27 17:04 | 38.16321 | 59.44790 | 29862 ft | 475 kts | 284° |
| 2026-04-27 17:04 | 38.18006 | 59.36701 | 29858 ft | 475 kts | 284° |
| 2026-04-27 17:05 | 38.19700 | 59.28539 | 29862 ft | 475 kts | 284° |
| 2026-04-27 17:05 | 38.21374 | 59.20445 | 29862 ft | 474 kts | 284° |
| 2026-04-27 17:06 | 38.23039 | 59.12361 | 29856 ft | 474 kts | 284° |
| 2026-04-27 17:06 | 38.24437 | 59.05550 | 29862 ft | 474 kts | 284° |
| 2026-04-27 17:07 | 38.26088 | 58.97476 | 29853 ft | 474 kts | 284° |
| 2026-04-27 17:07 | 38.27738 | 58.89380 | 29853 ft | 473 kts | 284° |
| 2026-04-27 17:08 | 38.29391 | 58.81239 | 29853 ft | 473 kts | 284° |
| 2026-04-27 17:08 | 38.31027 | 58.73147 | 29849 ft | 473 kts | 284° |
| 2026-04-27 17:09 | 38.32658 | 58.65050 | 29848 ft | 473 kts | 284° |
| 2026-04-27 17:09 | 38.34293 | 58.56900 | 29846 ft | 473 kts | 284° |
| 2026-04-27 17:10 | 38.35910 | 58.48810 | 29847 ft | 473 kts | 284° |
| 2026-04-27 17:10 | 38.37524 | 58.40704 | 29847 ft | 473 kts | 284° |
| 2026-04-27 17:11 | 38.39146 | 58.32527 | 29845 ft | 473 kts | 284° |
| 2026-04-27 17:11 | 38.42557 | 58.20782 | 29855 ft | 474 kts | 294° |
| 2026-04-27 17:12 | 38.46719 | 58.09274 | 29850 ft | 475 kts | 294° |
| 2026-04-27 17:13 | 38.49438 | 58.01616 | 29850 ft | 476 kts | 293° |
| 2026-04-27 17:13 | 38.52145 | 57.93939 | 29847 ft | 476 kts | 293° |
| 2026-04-27 17:14 | 38.54872 | 57.86182 | 29846 ft | 476 kts | 293° |
| 2026-04-27 17:14 | 38.57574 | 57.78484 | 29846 ft | 476 kts | 293° |
| 2026-04-27 17:15 | 38.60273 | 57.70777 | 29851 ft | 476 kts | 293° |
| 2026-04-27 17:15 | 38.62590 | 57.62815 | 29839 ft | 475 kts | 284° |
| 2026-04-27 17:16 | 38.64150 | 57.54648 | 29847 ft | 475 kts | 283° |
| 2026-04-27 17:16 | 38.65698 | 57.46466 | 29853 ft | 474 kts | 283° |
| 2026-04-27 17:17 | 38.67264 | 57.38294 | 29859 ft | 474 kts | 283° |
| 2026-04-27 17:17 | 38.68852 | 57.30052 | 29857 ft | 474 kts | 283° |
| 2026-04-27 17:18 | 38.71205 | 57.17800 | 29866 ft | 474 kts | 283° |
| 2026-04-27 17:18 | 38.72768 | 57.09613 | 29868 ft | 474 kts | 283° |
| 2026-04-27 17:19 | 38.74335 | 57.01365 | 29873 ft | 474 kts | 283° |
| 2026-04-27 17:19 | 38.75882 | 56.93193 | 29874 ft | 474 kts | 283° |
| 2026-04-27 17:20 | 38.77433 | 56.84964 | 29875 ft | 474 kts | 283° |
| 2026-04-27 17:20 | 38.78968 | 56.76784 | 29881 ft | 474 kts | 283° |
| 2026-04-27 17:21 | 38.80511 | 56.68533 | 29883 ft | 474 kts | 283° |
| 2026-04-27 17:21 | 38.82034 | 56.60347 | 29886 ft | 474 kts | 283° |
| 2026-04-27 17:22 | 38.83554 | 56.52150 | 29883 ft | 475 kts | 283° |
| 2026-04-27 17:22 | 38.85083 | 56.43865 | 29893 ft | 475 kts | 283° |
| 2026-04-27 17:23 | 38.86597 | 56.35627 | 29888 ft | 476 kts | 282° |
| 2026-04-27 17:23 | 38.88108 | 56.27373 | 29883 ft | 476 kts | 282° |
| 2026-04-27 17:24 | 38.89625 | 56.19048 | 29895 ft | 477 kts | 282° |
| 2026-04-27 17:24 | 38.91124 | 56.10785 | 29891 ft | 477 kts | 282° |
| 2026-04-27 17:25 | 38.92619 | 56.02511 | 29888 ft | 478 kts | 282° |
| 2026-04-27 17:25 | 38.94118 | 55.94176 | 29893 ft | 478 kts | 282° |
| 2026-04-27 17:26 | 38.95612 | 55.85838 | 29897 ft | 478 kts | 282° |
| 2026-04-27 17:26 | 38.97089 | 55.77552 | 29897 ft | 477 kts | 282° |
| 2026-04-27 17:27 | 38.98560 | 55.69266 | 29909 ft | 477 kts | 282° |
| 2026-04-27 17:27 | 39.00038 | 55.60908 | 29908 ft | 477 kts | 281° |
| 2026-04-27 17:28 | 39.01496 | 55.52625 | 29908 ft | 477 kts | 281° |
| 2026-04-27 17:29 | 39.03700 | 55.40109 | 29912 ft | 477 kts | 281° |
| 2026-04-27 17:29 | 39.05153 | 55.31820 | 29909 ft | 477 kts | 281° |
| 2026-04-27 17:30 | 39.06601 | 55.23518 | 29914 ft | 477 kts | 281° |
| 2026-04-27 17:30 | 39.08774 | 55.10980 | 29912 ft | 478 kts | 280° |
| 2026-04-27 17:31 | 39.10211 | 55.02648 | 29912 ft | 478 kts | 280° |
| 2026-04-27 17:31 | 39.11641 | 54.94318 | 29914 ft | 478 kts | 280° |
| 2026-04-27 17:32 | 39.13790 | 54.81725 | 29916 ft | 479 kts | 280° |
| 2026-04-27 17:33 | 39.15209 | 54.73357 | 29917 ft | 480 kts | 280° |
| 2026-04-27 17:33 | 39.16635 | 54.64914 | 29915 ft | 480 kts | 280° |
| 2026-04-27 17:34 | 39.18040 | 54.56560 | 29917 ft | 480 kts | 279° |
| 2026-04-27 17:34 | 39.19451 | 54.48117 | 29916 ft | 480 kts | 279° |
| 2026-04-27 17:35 | 39.20845 | 54.39723 | 29920 ft | 480 kts | 279° |
| 2026-04-27 17:35 | 39.22233 | 54.31328 | 29920 ft | 480 kts | 279° |
| 2026-04-27 17:36 | 39.23625 | 54.22870 | 29926 ft | 479 kts | 279° |
| 2026-04-27 17:36 | 39.24994 | 54.14513 | 29928 ft | 479 kts | 279° |
| 2026-04-27 17:37 | 39.26374 | 54.06052 | 29938 ft | 479 kts | 279° |
| 2026-04-27 17:37 | 39.27733 | 53.97673 | 29939 ft | 479 kts | 279° |
| 2026-04-27 17:38 | 39.29097 | 53.89226 | 29927 ft | 478 kts | 279° |
| 2026-04-27 17:38 | 39.30443 | 53.80853 | 29931 ft | 478 kts | 279° |
| 2026-04-27 17:39 | 39.31784 | 53.72465 | 29939 ft | 478 kts | 279° |
| 2026-04-27 17:39 | 39.33130 | 53.64006 | 29944 ft | 478 kts | 279° |
| 2026-04-27 17:40 | 39.34457 | 53.55625 | 29938 ft | 478 kts | 279° |
| 2026-04-27 17:40 | 39.35786 | 53.47192 | 29949 ft | 477 kts | 279° |
| 2026-04-27 17:41 | 39.37096 | 53.38833 | 29953 ft | 476 kts | 278° |
| 2026-04-27 17:41 | 39.38402 | 53.30466 | 29956 ft | 476 kts | 278° |
| 2026-04-27 17:42 | 39.39720 | 53.21975 | 29954 ft | 475 kts | 278° |
| 2026-04-27 17:42 | 39.40986 | 53.13779 | 29960 ft | 475 kts | 278° |
| 2026-04-27 17:43 | 39.42271 | 53.05415 | 29962 ft | 474 kts | 278° |
| 2026-04-27 17:43 | 39.43550 | 52.97056 | 29962 ft | 474 kts | 278° |
| 2026-04-27 17:44 | 39.44823 | 52.88689 | 29967 ft | 474 kts | 278° |
| 2026-04-27 17:44 | 39.46104 | 52.80211 | 30014 ft | 486 kts | 281° |
| 2026-04-27 17:45 | 39.47410 | 52.71549 | 30021 ft | 496 kts | 281° |
| 2026-04-27 17:45 | 39.48731 | 52.62735 | 29994 ft | 499 kts | 281° |
| 2026-04-27 17:46 | 39.50041 | 52.53942 | 29996 ft | 497 kts | 281° |
| 2026-04-27 17:46 | 39.51342 | 52.45159 | 30001 ft | 496 kts | 281° |
| 2026-04-27 17:47 | 39.52632 | 52.36400 | 30002 ft | 495 kts | 280° |
| 2026-04-27 17:47 | 39.53923 | 52.27595 | 30328 ft | 498 kts | 280° |
| 2026-04-27 17:47 | 39.54565 | 52.23192 | 30689 ft | 496 kts | 280° |
| 2026-04-27 17:48 | 39.55203 | 52.18809 | 31066 ft | 494 kts | 280° |
| 2026-04-27 17:48 | 39.55837 | 52.14444 | 31412 ft | 492 kts | 280° |
| 2026-04-27 17:48 | 39.56465 | 52.10103 | 31710 ft | 491 kts | 280° |
| 2026-04-27 17:48 | 39.57093 | 52.05753 | 31913 ft | 491 kts | 280° |
| 2026-04-27 17:49 | 39.57721 | 52.01388 | 31950 ft | 493 kts | 280° |
| 2026-04-27 17:49 | 39.58971 | 51.92665 | 31989 ft | 491 kts | 280° |
| 2026-04-27 17:50 | 39.60211 | 51.83965 | 32003 ft | 490 kts | 280° |
| 2026-04-27 17:50 | 39.62045 | 51.71011 | 32002 ft | 489 kts | 280° |
| 2026-04-27 17:51 | 39.63264 | 51.62334 | 32003 ft | 489 kts | 280° |
| 2026-04-27 17:51 | 39.64480 | 51.53646 | 32002 ft | 490 kts | 280° |
| 2026-04-27 17:52 | 39.65856 | 51.44993 | 32000 ft | 491 kts | 283° |
| 2026-04-27 17:52 | 39.67223 | 51.37781 | 32003 ft | 491 kts | 284° |
| 2026-04-27 17:53 | 39.69147 | 51.27783 | 32001 ft | 492 kts | 283° |
| 2026-04-27 17:53 | 39.70502 | 51.20610 | 32001 ft | 492 kts | 283° |
| 2026-04-27 17:54 | 39.72123 | 51.11910 | 32001 ft | 492 kts | 283° |
| 2026-04-27 17:54 | 39.73710 | 51.03328 | 32001 ft | 492 kts | 283° |
| 2026-04-27 17:55 | 39.75303 | 50.94681 | 32001 ft | 492 kts | 283° |
| 2026-04-27 17:55 | 39.76887 | 50.86046 | 32001 ft | 491 kts | 283° |
| 2026-04-27 17:56 | 39.78476 | 50.77346 | 32001 ft | 491 kts | 283° |
| 2026-04-27 17:56 | 39.80048 | 50.68700 | 32001 ft | 491 kts | 283° |
| 2026-04-27 17:57 | 39.81612 | 50.60061 | 32001 ft | 491 kts | 283° |
| 2026-04-27 17:57 | 39.83169 | 50.51423 | 32001 ft | 491 kts | 283° |
| 2026-04-27 17:58 | 39.84721 | 50.42769 | 32001 ft | 491 kts | 283° |
| 2026-04-27 17:58 | 39.86266 | 50.34113 | 32001 ft | 491 kts | 283° |
| 2026-04-27 17:59 | 39.87804 | 50.25460 | 32001 ft | 491 kts | 283° |
| 2026-04-27 17:59 | 39.89338 | 50.16789 | 32001 ft | 491 kts | 283° |
| 2026-04-27 18:00 | 39.90865 | 50.08117 | 32001 ft | 491 kts | 282° |
| 2026-04-27 18:00 | 39.92386 | 49.99436 | 32001 ft | 491 kts | 282° |
| 2026-04-27 18:01 | 39.93900 | 49.90758 | 32002 ft | 491 kts | 282° |
| 2026-04-27 18:01 | 39.95409 | 49.82067 | 32001 ft | 491 kts | 282° |
| 2026-04-27 18:02 | 39.96910 | 49.73377 | 32001 ft | 491 kts | 282° |
| 2026-04-27 18:02 | 39.98404 | 49.64691 | 32001 ft | 491 kts | 282° |
| 2026-04-27 18:03 | 39.99893 | 49.55990 | 32001 ft | 491 kts | 282° |
| 2026-04-27 18:03 | 40.01374 | 49.47294 | 32001 ft | 491 kts | 282° |
| 2026-04-27 18:04 | 40.02848 | 49.38594 | 32001 ft | 491 kts | 282° |
| 2026-04-27 18:04 | 40.04318 | 49.29883 | 32001 ft | 491 kts | 282° |
| 2026-04-27 18:05 | 40.05779 | 49.21176 | 32002 ft | 491 kts | 282° |
| 2026-04-27 18:05 | 40.07236 | 49.12457 | 32001 ft | 491 kts | 282° |
| 2026-04-27 18:06 | 40.08683 | 49.03746 | 32002 ft | 491 kts | 282° |
| 2026-04-27 18:06 | 40.10126 | 48.95023 | 32001 ft | 491 kts | 282° |
| 2026-04-27 18:07 | 40.11562 | 48.86296 | 32002 ft | 491 kts | 282° |
| 2026-04-27 18:07 | 40.12992 | 48.77572 | 32001 ft | 491 kts | 282° |
| 2026-04-27 18:08 | 40.14413 | 48.68833 | 32001 ft | 491 kts | 282° |
| 2026-04-27 18:08 | 40.15813 | 48.60173 | 32001 ft | 491 kts | 282° |
| 2026-04-27 18:09 | 40.17231 | 48.51348 | 32001 ft | 491 kts | 281° |
| 2026-04-27 18:09 | 40.18630 | 48.42606 | 32001 ft | 491 kts | 281° |
| 2026-04-27 18:10 | 40.20022 | 48.33866 | 32001 ft | 491 kts | 281° |
| 2026-04-27 18:10 | 40.21409 | 48.25113 | 32001 ft | 491 kts | 281° |
| 2026-04-27 18:11 | 40.22788 | 48.16357 | 32001 ft | 491 kts | 281° |
| 2026-04-27 18:11 | 40.24161 | 48.07601 | 32001 ft | 491 kts | 281° |
| 2026-04-27 18:12 | 40.25528 | 47.98838 | 32001 ft | 491 kts | 281° |
| 2026-04-27 18:12 | 40.26889 | 47.90066 | 32001 ft | 491 kts | 281° |
| 2026-04-27 18:13 | 40.28241 | 47.81303 | 32001 ft | 491 kts | 281° |
| 2026-04-27 18:13 | 40.29589 | 47.72520 | 32001 ft | 491 kts | 281° |
| 2026-04-27 18:14 | 40.30928 | 47.63753 | 32001 ft | 491 kts | 281° |
| 2026-04-27 18:14 | 40.32271 | 47.54909 | 32001 ft | 491 kts | 281° |
| 2026-04-27 18:15 | 40.33597 | 47.46128 | 32001 ft | 491 kts | 281° |
| 2026-04-27 18:15 | 40.34918 | 47.37335 | 32001 ft | 491 kts | 281° |
| 2026-04-27 18:16 | 40.36231 | 47.28551 | 32001 ft | 491 kts | 281° |
| 2026-04-27 18:16 | 40.37538 | 47.19756 | 32001 ft | 491 kts | 281° |
| 2026-04-27 18:17 | 40.38839 | 47.10953 | 32001 ft | 491 kts | 281° |
| 2026-04-27 18:17 | 40.40134 | 47.02144 | 32001 ft | 491 kts | 281° |
| 2026-04-27 18:18 | 40.41419 | 46.93346 | 32001 ft | 491 kts | 281° |
| 2026-04-27 18:18 | 40.42692 | 46.84592 | 32001 ft | 491 kts | 280° |
| 2026-04-27 18:19 | 40.43970 | 46.75751 | 32001 ft | 491 kts | 280° |
| 2026-04-27 18:19 | 40.45234 | 46.66953 | 32001 ft | 491 kts | 280° |
| 2026-04-27 18:20 | 40.46509 | 46.58030 | 32002 ft | 491 kts | 280° |
| 2026-04-27 18:20 | 40.47762 | 46.49212 | 32001 ft | 491 kts | 280° |
| 2026-04-27 18:21 | 40.49009 | 46.40386 | 32001 ft | 491 kts | 280° |
| 2026-04-27 18:21 | 40.50249 | 46.31553 | 32001 ft | 491 kts | 280° |
| 2026-04-27 18:22 | 40.51483 | 46.22729 | 32001 ft | 491 kts | 280° |
| 2026-04-27 18:22 | 40.52718 | 46.13835 | 32002 ft | 491 kts | 280° |
| 2026-04-27 18:23 | 40.53941 | 46.04998 | 32000 ft | 491 kts | 280° |
| 2026-04-27 18:23 | 40.55159 | 45.96153 | 32003 ft | 491 kts | 280° |
| 2026-04-27 18:24 | 40.56369 | 45.87308 | 32004 ft | 491 kts | 280° |
| 2026-04-27 18:24 | 40.57571 | 45.78466 | 32001 ft | 491 kts | 279° |
| 2026-04-27 18:25 | 40.58768 | 45.69609 | 32000 ft | 492 kts | 279° |
| 2026-04-27 18:25 | 40.59957 | 45.60756 | 32000 ft | 492 kts | 279° |
| 2026-04-27 18:26 | 40.61141 | 45.51893 | 32001 ft | 491 kts | 279° |
| 2026-04-27 18:26 | 40.62317 | 45.43037 | 32000 ft | 491 kts | 279° |
| 2026-04-27 18:27 | 40.63290 | 45.35669 | 32003 ft | 491 kts | 279° |
| 2026-04-27 18:27 | 40.64451 | 45.26811 | 31999 ft | 491 kts | 279° |
| 2026-04-27 18:28 | 40.65605 | 45.17948 | 32003 ft | 491 kts | 279° |
| 2026-04-27 18:28 | 40.66754 | 45.09074 | 32001 ft | 491 kts | 279° |
| 2026-04-27 18:29 | 40.67895 | 45.00209 | 32003 ft | 491 kts | 279° |
| 2026-04-27 18:29 | 40.69030 | 44.91328 | 32001 ft | 491 kts | 279° |
| 2026-04-27 18:30 | 40.70159 | 44.82441 | 32001 ft | 492 kts | 279° |
| 2026-04-27 18:30 | 40.71281 | 44.73559 | 32001 ft | 491 kts | 279° |
| 2026-04-27 18:31 | 40.72394 | 44.64680 | 32001 ft | 491 kts | 279° |
| 2026-04-27 18:31 | 40.73502 | 44.55788 | 32004 ft | 491 kts | 279° |
| 2026-04-27 18:32 | 40.74604 | 44.46892 | 32001 ft | 491 kts | 279° |
| 2026-04-27 18:32 | 40.75696 | 44.38017 | 32001 ft | 491 kts | 279° |
| 2026-04-27 18:33 | 40.76784 | 44.29111 | 32003 ft | 491 kts | 279° |
| 2026-04-27 18:33 | 40.77865 | 44.20205 | 32001 ft | 491 kts | 279° |
| 2026-04-27 18:34 | 40.78938 | 44.11308 | 32003 ft | 491 kts | 278° |
| 2026-04-27 18:34 | 40.80005 | 44.02400 | 32001 ft | 491 kts | 278° |
| 2026-04-27 18:35 | 40.81066 | 43.93483 | 32002 ft | 492 kts | 278° |
| 2026-04-27 18:35 | 40.82119 | 43.84575 | 32001 ft | 491 kts | 278° |
| 2026-04-27 18:36 | 40.83173 | 43.75599 | 32002 ft | 491 kts | 278° |
| 2026-04-27 18:36 | 40.84148 | 43.66662 | 31999 ft | 491 kts | 275° |
| 2026-04-27 18:37 | 40.84670 | 43.57679 | 32000 ft | 491 kts | 274° |
| 2026-04-27 18:37 | 40.85131 | 43.48678 | 32001 ft | 491 kts | 274° |
| 2026-04-27 18:38 | 40.85603 | 43.39670 | 32003 ft | 491 kts | 274° |
| 2026-04-27 18:38 | 40.86085 | 43.30677 | 32000 ft | 491 kts | 274° |
| 2026-04-27 18:39 | 40.86566 | 43.21669 | 32002 ft | 491 kts | 274° |
| 2026-04-27 18:39 | 40.87039 | 43.12664 | 32001 ft | 491 kts | 274° |
| 2026-04-27 18:40 | 40.87505 | 43.03656 | 32003 ft | 491 kts | 274° |
| 2026-04-27 18:40 | 40.87960 | 42.94703 | 32000 ft | 491 kts | 274° |
| 2026-04-27 18:41 | 40.88411 | 42.85702 | 32002 ft | 491 kts | 273° |
| 2026-04-27 18:41 | 40.88854 | 42.76698 | 32001 ft | 491 kts | 273° |
| 2026-04-27 18:42 | 40.89221 | 42.69147 | 32001 ft | 491 kts | 273° |
| 2026-04-27 18:42 | 40.89721 | 42.58672 | 32001 ft | 491 kts | 273° |
| 2026-04-27 18:43 | 40.90088 | 42.50867 | 32000 ft | 491 kts | 273° |
| 2026-04-27 18:43 | 40.90507 | 42.41805 | 32002 ft | 491 kts | 273° |
| 2026-04-27 18:44 | 40.90915 | 42.32826 | 32001 ft | 491 kts | 273° |
| 2026-04-27 18:44 | 40.91318 | 42.23828 | 32003 ft | 491 kts | 273° |
| 2026-04-27 18:45 | 40.91715 | 42.14763 | 31990 ft | 491 kts | 273° |
| 2026-04-27 18:45 | 40.92103 | 42.05761 | 32003 ft | 491 kts | 273° |
| 2026-04-27 18:46 | 40.92484 | 41.96772 | 32001 ft | 491 kts | 273° |
| 2026-04-27 18:46 | 40.92858 | 41.87764 | 32004 ft | 491 kts | 273° |
| 2026-04-27 18:47 | 40.93225 | 41.78753 | 32002 ft | 492 kts | 273° |
| 2026-04-27 18:47 | 40.93588 | 41.69675 | 32001 ft | 492 kts | 272° |
| 2026-04-27 18:48 | 40.93941 | 41.60664 | 32002 ft | 492 kts | 272° |
| 2026-04-27 18:48 | 40.94287 | 41.51657 | 32002 ft | 492 kts | 272° |
| 2026-04-27 18:49 | 40.94626 | 41.42658 | 31999 ft | 491 kts | 272° |
| 2026-04-27 18:49 | 40.94960 | 41.33590 | 32001 ft | 491 kts | 272° |
| 2026-04-27 18:50 | 40.95285 | 41.24576 | 32004 ft | 491 kts | 272° |
| 2026-04-27 18:50 | 40.95603 | 41.15570 | 32000 ft | 491 kts | 272° |
| 2026-04-27 18:51 | 40.95914 | 41.06570 | 32005 ft | 491 kts | 272° |
| 2026-04-27 18:51 | 40.96220 | 40.97501 | 32002 ft | 491 kts | 272° |
| 2026-04-27 18:52 | 40.96517 | 40.88504 | 32000 ft | 491 kts | 272° |
| 2026-04-27 18:53 | 40.96942 | 40.74998 | 31999 ft | 491 kts | 272° |
| 2026-04-27 18:53 | 40.97217 | 40.65928 | 32006 ft | 491 kts | 272° |
| 2026-04-27 18:54 | 40.97485 | 40.56930 | 31999 ft | 491 kts | 272° |
| 2026-04-27 18:54 | 40.97746 | 40.47932 | 32000 ft | 491 kts | 272° |
| 2026-04-27 18:55 | 40.98001 | 40.38861 | 32003 ft | 491 kts | 272° |
| 2026-04-27 18:55 | 40.98249 | 40.29856 | 31999 ft | 491 kts | 272° |
| 2026-04-27 18:56 | 40.98489 | 40.20847 | 32002 ft | 491 kts | 271° |
| 2026-04-27 18:56 | 40.98722 | 40.11828 | 32001 ft | 491 kts | 271° |
| 2026-04-27 18:57 | 40.98949 | 40.02752 | 32002 ft | 491 kts | 271° |
| 2026-04-27 18:57 | 40.99171 | 39.93658 | 32001 ft | 491 kts | 271° |
| 2026-04-27 18:58 | 40.99385 | 39.84640 | 32001 ft | 491 kts | 271° |
| 2026-04-27 18:58 | 40.99807 | 39.75641 | 32003 ft | 491 kts | 277° |
| 2026-04-27 18:59 | 41.00695 | 39.66697 | 32002 ft | 491 kts | 277° |
| 2026-04-27 18:59 | 41.01590 | 39.57766 | 32002 ft | 491 kts | 277° |
| 2026-04-27 19:00 | 41.02455 | 39.48747 | 32001 ft | 491 kts | 277° |
| 2026-04-27 19:00 | 41.03294 | 39.39784 | 32004 ft | 492 kts | 277° |
| 2026-04-27 19:01 | 41.04126 | 39.30825 | 32001 ft | 492 kts | 277° |
| 2026-04-27 19:01 | 41.04960 | 39.21785 | 32001 ft | 492 kts | 277° |
| 2026-04-27 19:02 | 41.05782 | 39.12813 | 32003 ft | 492 kts | 277° |
| 2026-04-27 19:02 | 41.06616 | 39.03840 | 32001 ft | 492 kts | 277° |
| 2026-04-27 19:03 | 41.07451 | 38.94866 | 32001 ft | 492 kts | 277° |
| 2026-04-27 19:03 | 41.08276 | 38.85903 | 32001 ft | 492 kts | 276° |
| 2026-04-27 19:04 | 41.09099 | 38.76858 | 32001 ft | 491 kts | 276° |
| 2026-04-27 19:04 | 41.09903 | 38.67902 | 32002 ft | 491 kts | 276° |
| 2026-04-27 19:05 | 41.10650 | 38.58850 | 32002 ft | 491 kts | 276° |
| 2026-04-27 19:05 | 41.11404 | 38.49873 | 32001 ft | 491 kts | 276° |
| 2026-04-27 19:06 | 41.12163 | 38.40899 | 32002 ft | 491 kts | 276° |
| 2026-04-27 19:06 | 41.12918 | 38.31846 | 32001 ft | 491 kts | 276° |
| 2026-04-27 19:07 | 41.13655 | 38.22872 | 32001 ft | 491 kts | 276° |
| 2026-04-27 19:07 | 41.14380 | 38.13879 | 32001 ft | 491 kts | 276° |
| 2026-04-27 19:08 | 41.15106 | 38.04796 | 32001 ft | 491 kts | 276° |
| 2026-04-27 19:08 | 41.15819 | 37.95801 | 32001 ft | 491 kts | 276° |
| 2026-04-27 19:09 | 41.16529 | 37.86804 | 32002 ft | 491 kts | 276° |
| 2026-04-27 19:09 | 41.17306 | 37.77832 | 32001 ft | 491 kts | 276° |
| 2026-04-27 19:10 | 41.18104 | 37.68781 | 32002 ft | 491 kts | 276° |
| 2026-04-27 19:10 | 41.18860 | 37.59791 | 32002 ft | 491 kts | 275° |
| 2026-04-27 19:11 | 41.19229 | 37.52275 | 31999 ft | 491 kts | 274° |
| 2026-04-27 19:11 | 41.19856 | 37.43186 | 32003 ft | 491 kts | 276° |
| 2026-04-27 19:12 | 41.20554 | 37.34196 | 32000 ft | 491 kts | 275° |
| 2026-04-27 19:12 | 41.21211 | 37.25191 | 32002 ft | 491 kts | 275° |
| 2026-04-27 19:13 | 41.21887 | 37.16099 | 32001 ft | 491 kts | 276° |
| 2026-04-27 19:13 | 41.22609 | 37.07089 | 32002 ft | 492 kts | 276° |
| 2026-04-27 19:14 | 41.23324 | 36.98077 | 32001 ft | 492 kts | 276° |
| 2026-04-27 19:14 | 41.24023 | 36.89064 | 32001 ft | 492 kts | 275° |
| 2026-04-27 19:15 | 41.24719 | 36.79972 | 32001 ft | 492 kts | 275° |
| 2026-04-27 19:15 | 41.25401 | 36.70956 | 32001 ft | 492 kts | 275° |
| 2026-04-27 19:16 | 41.26078 | 36.61950 | 32001 ft | 492 kts | 275° |
| 2026-04-27 19:16 | 41.27104 | 36.52996 | 31996 ft | 492 kts | 283° |
| 2026-04-27 19:17 | 41.29193 | 36.44363 | 32007 ft | 492 kts | 289° |